createdAt,value
2022-12-03T00:02:27.178Z,33.78
2022-12-03T00:05:20.854Z,35.87
2022-12-03T00:07:48.623Z,38.47
2022-12-03T00:10:17.141Z,36.78
2022-12-03T00:13:09.757Z,39.00
2022-12-03T00:15:37.746Z,34.90
2022-12-03T00:18:05.616Z,36.57
2022-12-03T00:20:33.672Z,35.85
2022-12-03T00:23:02.489Z,32.55
2022-12-03T00:25:30.591Z,30.95
2022-12-03T00:27:58.534Z,31.48
2022-12-03T00:30:26.453Z,30.47
2022-12-03T00:32:54.138Z,32.97
2022-12-03T00:35:22.360Z,35.55
2022-12-03T00:37:50.148Z,33.83
2022-12-03T00:40:18.314Z,30.40
2022-12-03T00:42:46.069Z,27.63
2022-12-03T00:45:14.288Z,31.73
2022-12-03T00:47:41.992Z,30.38
2022-12-03T00:50:10.480Z,27.77
2022-12-03T00:52:39.661Z,24.27
2022-12-03T00:55:08.234Z,25.63
2022-12-03T00:57:35.875Z,26.42
2022-12-03T01:00:34.081Z,27.48
2022-12-03T01:03:02.094Z,25.55
2022-12-03T01:05:30.404Z,24.80
2022-12-03T01:08:54.254Z,23.93
2022-12-03T01:15:00.531Z,24.67
2022-12-03T01:17:28.686Z,23.17
2022-12-03T01:20:52.850Z,24.05
2022-12-03T01:23:20.752Z,23.63
2022-12-03T01:25:48.229Z,23.15
2022-12-03T01:28:17.281Z,23.45
2022-12-03T01:33:55.539Z,23.10
2022-12-03T01:36:23.143Z,23.53
2022-12-03T01:38:51.212Z,23.20
2022-12-03T01:41:21.175Z,23.10
2022-12-03T01:43:53.798Z,24.70
2022-12-03T01:46:25.432Z,26.85
2022-12-03T01:48:55.975Z,26.00
2022-12-03T01:51:23.665Z,24.85
2022-12-03T01:53:52.538Z,26.38
2022-12-03T01:56:20.302Z,25.77
2022-12-03T01:58:48.747Z,24.88
2022-12-03T02:01:19.392Z,24.67
2022-12-03T02:03:47.695Z,25.02
2022-12-03T02:06:24.693Z,26.80
2022-12-03T02:08:59.617Z,25.83
2022-12-03T02:11:36.645Z,22.83
2022-12-03T02:14:09.392Z,22.70
2022-12-03T02:16:39.348Z,20.63
2022-12-03T02:19:34.821Z,21.65
2022-12-03T02:22:24.884Z,22.83
2022-12-03T02:25:05.247Z,24.20
2022-12-03T02:27:32.980Z,21.07
2022-12-03T02:30:00.884Z,22.70
2022-12-03T02:32:54.454Z,24.77
2022-12-03T02:35:25.507Z,21.55
2022-12-03T02:38:17.347Z,23.35
2022-12-03T02:40:47.557Z,21.47
2022-12-03T02:43:17.005Z,19.90
2022-12-03T02:45:56.769Z,21.80
2022-12-03T02:48:28.645Z,21.27
2022-12-03T02:51:01.529Z,22.10
2022-12-03T02:53:33.631Z,22.30
2022-12-03T02:56:03.631Z,23.05
2022-12-03T02:58:34.374Z,22.58
2022-12-03T03:01:04.593Z,23.40
2022-12-03T03:03:33.858Z,23.02
2022-12-03T03:06:03.058Z,21.67
2022-12-03T03:08:31.276Z,20.30
2022-12-03T03:11:01.852Z,20.70
2022-12-03T03:13:31.181Z,21.20
2022-12-03T03:15:59.758Z,21.38
2022-12-03T03:18:27.464Z,20.93
2022-12-03T03:20:55.564Z,21.13
2022-12-03T03:23:25.070Z,23.08
2022-12-03T03:26:18.124Z,22.73
2022-12-03T03:28:50.205Z,20.65
2022-12-03T03:31:23.177Z,21.87
2022-12-03T03:39:16.769Z,21.10
2022-12-03T03:41:46.699Z,21.15
2022-12-03T03:44:14.868Z,21.77
2022-12-03T03:46:43.781Z,22.77
2022-12-03T03:49:12.730Z,23.25
2022-12-03T03:51:40.488Z,24.02
2022-12-03T03:54:08.835Z,22.17
2022-12-03T03:56:36.551Z,21.95
2022-12-03T03:59:30.685Z,21.93
2022-12-03T04:01:58.345Z,22.45
2022-12-03T04:04:27.653Z,23.05
2022-12-03T04:07:01.251Z,22.33
2022-12-03T04:09:29.273Z,21.58
2022-12-03T04:12:16.206Z,22.37
2022-12-03T04:14:44.065Z,22.85
2022-12-03T04:17:11.628Z,23.00
2022-12-03T04:19:39.544Z,27.33
2022-12-03T04:22:25.380Z,28.88
2022-12-03T04:25:13.316Z,25.70
2022-12-03T04:27:59.565Z,27.77
2022-12-03T04:30:27.510Z,27.75
2022-12-03T04:33:13.742Z,26.00
2022-12-03T04:35:44.549Z,25.63
2022-12-03T04:38:13.529Z,23.17
2022-12-03T04:41:00.867Z,23.05
2022-12-03T04:43:29.070Z,24.00
2022-12-03T04:45:57.006Z,23.98
2022-12-03T04:48:27.525Z,23.30
2022-12-03T04:50:55.691Z,23.87
2022-12-03T04:53:23.127Z,25.38
2022-12-03T04:55:54.418Z,23.60
2022-12-03T04:58:22.140Z,24.17
2022-12-03T05:00:50.026Z,24.35
2022-12-03T05:03:17.917Z,23.43
2022-12-03T05:05:46.540Z,24.35
2022-12-03T05:08:14.381Z,25.88
2022-12-03T05:11:34.933Z,28.33
2022-12-03T05:14:02.729Z,25.05
2022-12-03T05:16:30.941Z,28.30
2022-12-03T05:18:58.873Z,29.30
2022-12-03T05:21:27.012Z,31.80
2022-12-03T05:23:54.883Z,30.52
2022-12-03T05:26:23.111Z,30.45
2022-12-03T05:28:50.996Z,30.33
2022-12-03T05:31:19.038Z,33.65
2022-12-03T05:33:46.922Z,37.72
2022-12-03T05:36:14.922Z,47.50
2022-12-03T05:38:42.591Z,34.88
2022-12-03T05:41:34.640Z,29.60
2022-12-03T05:44:02.377Z,29.60
2022-12-03T05:46:30.500Z,31.02
2022-12-03T05:48:58.387Z,28.50
2022-12-03T05:51:26.753Z,30.00
2022-12-03T05:53:54.422Z,35.00
2022-12-03T05:56:22.610Z,32.30
2022-12-03T05:58:50.234Z,30.95
2022-12-03T06:01:18.441Z,31.13
2022-12-03T06:03:46.256Z,32.75
2022-12-03T06:06:14.295Z,34.67
2022-12-03T06:08:42.253Z,35.22
2022-12-03T06:11:10.315Z,32.97
2022-12-03T06:13:37.968Z,35.65
2022-12-03T06:16:06.368Z,31.10
2022-12-03T06:18:34.055Z,53.63
2022-12-03T06:21:02.011Z,46.50
2022-12-03T06:23:29.739Z,36.22
2022-12-03T06:25:57.807Z,33.75
2022-12-03T06:28:25.675Z,30.65
2022-12-03T06:30:53.736Z,30.33
2022-12-03T06:33:21.426Z,30.15
2022-12-03T06:35:49.559Z,34.97
2022-12-03T06:38:17.428Z,32.08
2022-12-03T06:40:45.500Z,29.48
2022-12-03T06:43:13.367Z,30.00
2022-12-03T06:45:47.412Z,27.83
2022-12-03T06:48:19.009Z,27.63
2022-12-03T06:50:47.340Z,30.92
2022-12-03T06:53:40.065Z,32.30
2022-12-03T06:56:08.340Z,34.13
2022-12-03T06:58:36.053Z,41.08
2022-12-03T07:01:04.338Z,31.33
2022-12-03T07:03:32.020Z,28.35
2022-12-03T07:06:00.452Z,27.23
2022-12-03T07:08:31.374Z,30.10
2022-12-03T07:10:59.630Z,27.65
2022-12-03T07:13:27.473Z,24.95
2022-12-03T07:15:55.961Z,25.42
2022-12-03T07:18:23.676Z,25.45
2022-12-03T07:20:51.692Z,26.83
2022-12-03T07:23:20.735Z,27.00
2022-12-03T07:25:48.955Z,25.52
2022-12-03T07:28:16.700Z,28.75
2022-12-03T07:30:44.897Z,26.13
2022-12-03T07:33:43.123Z,22.47
2022-12-03T07:36:11.563Z,23.42
2022-12-03T07:38:39.244Z,22.08
2022-12-03T07:41:07.827Z,24.50
2022-12-03T07:43:35.567Z,22.60
2022-12-03T07:46:04.896Z,27.33
2022-12-03T07:48:32.695Z,22.88
2022-12-03T07:51:57.222Z,23.17
2022-12-03T07:54:25.180Z,25.15
2022-12-03T07:56:57.921Z,28.40
2022-12-03T07:59:29.442Z,27.47
2022-12-03T08:01:57.475Z,30.65
2022-12-03T08:04:54.471Z,37.38
2022-12-03T08:07:24.514Z,29.35
2022-12-03T08:09:52.865Z,24.88
2022-12-03T08:12:40.495Z,24.77
2022-12-03T08:15:13.550Z,29.73
2022-12-03T08:17:43.294Z,23.67
2022-12-03T08:24:25.224Z,24.73
2022-12-03T08:27:47.903Z,38.60
2022-12-03T08:30:18.024Z,35.28
2022-12-03T08:32:46.058Z,28.60
2022-12-03T08:35:19.884Z,30.10
2022-12-03T08:37:48.706Z,24.20
2022-12-03T08:40:23.777Z,28.53
2022-12-03T08:42:51.786Z,82.13
2022-12-03T08:45:41.456Z,26.98
2022-12-03T08:48:32.950Z,30.52
2022-12-03T08:51:25.809Z,19.48
2022-12-03T08:54:15.277Z,20.87
2022-12-03T08:56:45.269Z,27.33
2022-12-03T08:59:57.569Z,27.08
2022-12-03T09:02:45.969Z,24.55
2022-12-03T09:05:32.785Z,24.75
2022-12-03T09:08:01.116Z,20.23
2022-12-03T09:10:28.977Z,23.70
2022-12-03T09:14:18.070Z,23.45
2022-12-03T09:16:48.230Z,31.40
2022-12-03T09:19:16.580Z,30.48
2022-12-03T09:27:09.146Z,33.08
2022-12-03T09:29:36.919Z,32.92
2022-12-03T09:32:05.204Z,22.98
2022-12-03T09:34:38.346Z,56.20
2022-12-03T09:37:06.345Z,31.50
2022-12-03T09:39:34.129Z,34.15
2022-12-03T09:42:03.789Z,33.05
2022-12-03T09:44:33.957Z,29.55
2022-12-03T09:47:04.418Z,36.28
2022-12-03T09:49:37.688Z,37.73
2022-12-03T09:52:06.807Z,28.83
2022-12-03T09:54:35.062Z,31.80
2022-12-03T09:57:04.519Z,28.80
2022-12-03T09:59:34.548Z,25.83
2022-12-03T10:02:03.819Z,28.60
2022-12-03T10:04:32.039Z,88.03
2022-12-03T10:07:00.795Z,83.32
2022-12-03T10:09:30.688Z,45.55
2022-12-03T10:12:00.028Z,28.45
2022-12-03T10:14:28.475Z,28.93
2022-12-03T10:16:57.591Z,27.50
2022-12-03T10:19:31.964Z,40.65
2022-12-03T10:22:00.297Z,25.27
2022-12-03T10:24:36.564Z,23.55
2022-12-03T10:27:30.972Z,23.70
2022-12-03T10:30:00.664Z,27.98
2022-12-03T10:32:44.825Z,26.33
2022-12-03T10:35:17.397Z,22.70
2022-12-03T10:38:23.495Z,24.67
2022-12-03T10:40:52.880Z,24.73
2022-12-03T10:43:25.679Z,27.42
2022-12-03T10:46:18.358Z,31.40
2022-12-03T10:48:46.696Z,28.73
2022-12-03T10:51:21.558Z,25.88
2022-12-03T10:53:51.537Z,20.17
2022-12-03T10:56:25.680Z,22.13
2022-12-03T10:58:55.649Z,32.65
2022-12-03T11:01:26.806Z,26.52
2022-12-03T11:04:40.836Z,19.35
2022-12-03T11:07:26.741Z,20.37
2022-12-03T11:10:00.536Z,21.00
2022-12-03T11:12:35.029Z,21.25
2022-12-03T11:16:19.834Z,23.83
2022-12-03T11:19:16.751Z,41.55
2022-12-03T11:22:06.647Z,30.80
2022-12-03T11:24:39.272Z,26.10
2022-12-03T11:27:16.148Z,34.38
2022-12-03T11:29:54.772Z,22.10
2022-12-03T11:32:46.168Z,24.65
2022-12-03T11:35:15.818Z,22.10
2022-12-03T11:37:43.951Z,26.80
2022-12-03T11:40:17.890Z,23.48
2022-12-03T11:42:47.800Z,23.77
2022-12-03T11:45:41.552Z,27.65
2022-12-03T11:48:15.197Z,24.33
2022-12-03T11:50:57.378Z,20.38
2022-12-03T11:53:54.845Z,21.63
2022-12-03T11:56:28.499Z,19.83
2022-12-03T12:02:39.922Z,18.50
2022-12-03T12:05:32.518Z,19.77
2022-12-03T12:08:43.734Z,20.60
2022-12-03T12:11:28.491Z,22.67
2022-12-03T12:14:13.084Z,50.05
2022-12-03T12:16:50.979Z,32.70
2022-12-03T12:19:31.371Z,51.47
2022-12-03T12:22:25.342Z,74.75
2022-12-03T12:25:04.885Z,28.75
2022-12-03T12:27:39.554Z,36.55
2022-12-03T12:33:42.878Z,20.17
2022-12-03T12:36:12.168Z,17.67
2022-12-03T12:38:44.769Z,20.20
2022-12-03T12:41:12.906Z,16.83
2022-12-03T12:43:41.410Z,19.13
2022-12-03T12:46:46.158Z,19.05
2022-12-03T12:49:10.762Z,19.13
2022-12-03T12:51:51.479Z,20.70
2022-12-03T12:54:19.703Z,18.42
2022-12-03T12:56:53.539Z,16.57
2022-12-03T12:59:24.785Z,17.77
2022-12-03T13:01:52.917Z,17.85
2022-12-03T13:04:24.913Z,21.33
2022-12-03T13:06:54.297Z,24.88
2022-12-03T13:10:00.428Z,28.57
2022-12-03T13:13:24.281Z,22.58
2022-12-03T13:16:10.490Z,68.20
2022-12-03T13:18:53.541Z,41.83
2022-12-03T13:21:48.039Z,22.20
2022-12-03T13:24:37.289Z,24.33
2022-12-03T13:27:32.998Z,27.10
2022-12-03T13:30:07.704Z,30.15
2022-12-03T13:33:41.398Z,20.92
2022-12-03T13:36:15.471Z,22.40
2022-12-03T13:38:45.180Z,22.17
2022-12-03T13:41:40.887Z,27.92
2022-12-03T13:44:21.079Z,21.73
2022-12-03T13:46:48.977Z,20.83
2022-12-03T13:49:22.300Z,25.15
2022-12-03T13:51:51.202Z,22.50
2022-12-03T13:54:22.226Z,23.88
2022-12-03T13:56:50.991Z,22.08
2022-12-03T13:59:26.270Z,21.92
2022-12-03T14:01:54.419Z,19.92
2022-12-03T14:04:22.715Z,22.23
2022-12-03T14:06:50.486Z,25.33
2022-12-03T14:09:18.637Z,26.42
2022-12-03T14:12:06.186Z,26.50
2022-12-03T14:14:34.427Z,30.67
2022-12-03T14:17:02.388Z,34.63
2022-12-03T14:19:31.632Z,33.33
2022-12-03T14:22:00.618Z,30.17
2022-12-03T14:24:28.950Z,29.15
2022-12-03T14:26:56.694Z,28.33
2022-12-03T14:29:25.215Z,35.80
2022-12-03T14:31:52.999Z,33.40
2022-12-03T14:34:21.377Z,35.20
2022-12-03T14:36:49.194Z,29.10
2022-12-03T14:39:17.645Z,29.08
2022-12-03T14:43:00.686Z,27.53
2022-12-03T14:45:30.262Z,34.03
2022-12-03T14:47:57.969Z,33.60
2022-12-03T14:50:26.771Z,29.85
2022-12-03T14:52:54.431Z,33.00
2022-12-03T14:55:22.681Z,33.20
2022-12-03T14:57:50.410Z,32.97
2022-12-03T15:00:49.099Z,31.23
2022-12-03T15:03:17.042Z,32.60
2022-12-03T15:05:45.052Z,31.50
2022-12-03T15:08:17.477Z,30.77
2022-12-03T15:10:45.779Z,31.23
2022-12-03T15:13:15.003Z,30.23
2022-12-03T15:15:43.214Z,29.10
2022-12-03T15:18:10.923Z,37.40
2022-12-03T15:20:40.302Z,37.53
2022-12-03T15:23:13.895Z,39.72
2022-12-03T15:26:35.461Z,43.90
2022-12-03T15:29:03.763Z,51.03
2022-12-03T15:31:37.374Z,32.30
2022-12-03T15:34:05.646Z,31.13
2022-12-03T15:36:33.227Z,28.90
2022-12-03T15:39:01.579Z,29.65
2022-12-03T15:41:29.722Z,32.53
2022-12-03T15:44:01.841Z,32.08
2022-12-03T15:46:31.774Z,32.27
2022-12-03T15:49:00.094Z,36.05
2022-12-03T15:51:28.156Z,32.38
2022-12-03T15:53:56.226Z,32.15
2022-12-03T15:56:23.994Z,29.77
2022-12-03T15:58:53.945Z,30.37
2022-12-03T16:01:22.032Z,31.60
2022-12-03T16:03:50.148Z,30.83
2022-12-03T16:06:43.124Z,30.20
2022-12-03T16:09:11.433Z,40.30
2022-12-03T16:11:39.052Z,39.87
2022-12-03T16:14:07.219Z,38.70
2022-12-03T16:16:34.798Z,49.70
2022-12-03T16:19:06.539Z,48.05
2022-12-03T16:21:49.766Z,55.58
2022-12-03T16:24:17.955Z,50.23
2022-12-03T16:26:46.046Z,52.50
2022-12-03T16:29:15.486Z,54.42
2022-12-03T16:31:43.959Z,52.97
2022-12-03T16:34:13.063Z,49.45
2022-12-03T16:36:40.958Z,45.13
2022-12-03T16:39:09.283Z,53.33
2022-12-03T16:41:37.037Z,55.95
2022-12-03T16:44:06.807Z,48.55
2022-12-03T16:46:34.713Z,47.80
2022-12-03T16:49:04.118Z,44.67
2022-12-03T16:51:31.996Z,40.50
2022-12-03T16:54:00.296Z,40.95
2022-12-03T16:56:28.163Z,37.55
2022-12-03T16:58:56.558Z,40.97
2022-12-03T17:01:24.507Z,40.03
2022-12-03T17:03:52.730Z,37.28
2022-12-03T17:06:20.584Z,41.20
2022-12-03T17:08:50.132Z,38.10
2022-12-03T17:11:18.297Z,39.65
2022-12-03T17:13:47.617Z,36.33
2022-12-03T17:16:15.510Z,35.50
2022-12-03T17:18:43.815Z,35.85
2022-12-03T17:21:11.852Z,32.83
2022-12-03T17:23:40.145Z,32.47
2022-12-03T17:26:08.322Z,33.23
2022-12-03T17:28:36.787Z,31.25
2022-12-03T17:31:04.772Z,35.38
2022-12-03T17:33:33.133Z,33.63
2022-12-03T17:36:01.102Z,32.03
2022-12-03T17:38:32.681Z,31.37
2022-12-03T17:41:03.429Z,32.90
2022-12-03T17:43:31.660Z,33.30
2022-12-03T17:46:00.537Z,33.50
2022-12-03T17:48:31.691Z,34.03
2022-12-03T17:50:59.809Z,30.73
2022-12-03T17:53:28.902Z,29.58
2022-12-03T17:55:56.939Z,29.15
2022-12-03T17:58:27.255Z,30.10
2022-12-03T18:01:00.474Z,33.15
2022-12-03T18:03:31.460Z,41.07
2022-12-03T18:05:59.503Z,41.97
2022-12-03T18:08:28.080Z,44.10
2022-12-03T18:10:56.283Z,41.03
2022-12-03T18:13:24.735Z,41.85
2022-12-03T18:15:52.643Z,39.17
2022-12-03T18:18:20.986Z,39.47
2022-12-03T18:20:48.851Z,41.80
2022-12-03T18:23:17.335Z,45.53
2022-12-03T18:25:45.229Z,46.90
2022-12-03T18:28:13.643Z,40.60
2022-12-03T18:30:41.529Z,39.83
2022-12-03T18:33:09.960Z,46.22
2022-12-03T18:35:37.931Z,46.20
2022-12-03T18:38:14.654Z,44.22
2022-12-03T18:40:44.470Z,47.20
2022-12-03T18:43:13.979Z,49.47
2022-12-03T18:45:42.286Z,50.40
2022-12-03T18:48:19.534Z,53.42
2022-12-03T18:50:49.333Z,57.42
2022-12-03T18:53:19.773Z,61.13
2022-12-03T18:55:48.228Z,60.20
2022-12-03T18:58:19.821Z,44.35
2022-12-03T19:00:47.819Z,46.72
2022-12-03T19:03:17.256Z,46.75
2022-12-03T19:05:45.074Z,46.93
2022-12-03T19:08:15.219Z,56.33
2022-12-03T19:11:02.715Z,60.53
2022-12-03T19:13:30.978Z,62.53
2022-12-03T19:16:05.863Z,59.40
2022-12-03T19:18:34.355Z,57.40
2022-12-03T19:21:08.781Z,53.83
2022-12-03T19:24:23.372Z,49.20
2022-12-03T19:26:46.026Z,39.35
2022-12-03T19:29:18.987Z,41.15
2022-12-03T19:31:47.081Z,34.97
2022-12-03T19:34:15.326Z,33.35
2022-12-03T19:36:43.259Z,35.10
2022-12-03T19:39:11.590Z,33.53
2022-12-03T19:41:41.915Z,35.30
2022-12-03T19:44:14.962Z,43.03
2022-12-03T19:46:43.921Z,40.83
2022-12-03T19:49:12.739Z,37.58
2022-12-03T19:51:40.853Z,35.05
2022-12-03T19:54:11.921Z,36.13
2022-12-03T19:56:40.506Z,35.63
2022-12-03T19:59:09.303Z,42.65
2022-12-03T20:01:41.272Z,42.63
2022-12-03T20:04:11.799Z,35.90
2022-12-03T20:06:45.767Z,35.53
2022-12-03T20:09:18.166Z,36.30
2022-12-03T20:11:51.512Z,33.83
2022-12-03T20:14:24.808Z,42.55
2022-12-03T20:16:52.588Z,44.00
2022-12-03T20:19:24.729Z,41.53
2022-12-03T20:26:33.040Z,47.78
2022-12-03T20:29:06.652Z,47.25
2022-12-03T20:31:35.375Z,45.08
2022-12-03T20:34:04.176Z,42.67
2022-12-03T20:36:32.865Z,39.93
2022-12-03T20:39:03.243Z,37.15
2022-12-03T20:41:31.069Z,37.72
2022-12-03T20:43:58.968Z,34.80
2022-12-03T20:46:36.694Z,32.97
2022-12-03T20:52:34.367Z,30.08
2022-12-03T20:55:11.256Z,29.63
2022-12-03T20:58:02.644Z,30.67
2022-12-03T21:00:31.141Z,29.67
2022-12-03T21:02:58.845Z,30.60
2022-12-03T21:05:27.429Z,31.48
2022-12-03T21:07:55.241Z,34.22
2022-12-03T21:13:54.194Z,28.08
2022-12-03T21:16:52.131Z,27.73
2022-12-03T21:19:15.433Z,27.63
2022-12-03T21:21:43.666Z,28.83
2022-12-03T21:24:12.814Z,28.55
2022-12-03T21:26:41.478Z,30.65
2022-12-03T21:29:10.728Z,29.40
2022-12-03T21:31:40.239Z,28.60
2022-12-03T21:34:08.945Z,28.73
2022-12-03T21:36:37.084Z,28.83
2022-12-03T21:39:06.724Z,30.52
2022-12-03T21:41:35.840Z,29.00
2022-12-03T21:44:29.449Z,29.42
2022-12-03T21:47:10.775Z,41.80
2022-12-03T21:50:32.519Z,26.48
2022-12-03T21:53:05.489Z,25.67
2022-12-03T21:55:33.369Z,25.77
2022-12-03T21:58:01.622Z,24.25
2022-12-03T22:00:33.439Z,23.92
2022-12-03T22:03:01.632Z,24.20
2022-12-03T22:05:29.640Z,25.90
2022-12-03T22:07:57.940Z,25.77
2022-12-03T22:10:25.704Z,24.40
2022-12-03T22:12:54.013Z,26.70
2022-12-03T22:15:21.889Z,24.90
2022-12-03T22:17:50.250Z,26.50
2022-12-03T22:20:18.197Z,22.77
2022-12-03T22:22:46.500Z,23.40
2022-12-03T22:25:14.284Z,23.90
2022-12-03T22:27:42.611Z,24.88
2022-12-03T22:30:10.521Z,23.02
2022-12-03T22:32:38.631Z,22.30
2022-12-03T22:35:07.109Z,21.38
2022-12-03T22:37:35.305Z,22.30
2022-12-03T22:40:06.986Z,19.60
2022-12-03T22:42:38.551Z,20.52
2022-12-03T22:45:06.994Z,18.43
2022-12-03T22:47:34.891Z,19.40
2022-12-03T22:50:02.578Z,20.27
2022-12-03T22:52:31.177Z,19.83
2022-12-03T22:54:58.790Z,18.88
2022-12-03T22:57:26.874Z,17.07
2022-12-03T22:59:54.986Z,16.65
2022-12-03T23:02:23.208Z,17.65
2022-12-03T23:04:56.192Z,16.27
2022-12-03T23:07:24.322Z,17.02
2022-12-03T23:09:53.334Z,17.43
2022-12-03T23:13:38.658Z,17.88
2022-12-03T23:16:06.714Z,17.88
2022-12-03T23:18:34.805Z,15.90
2022-12-03T23:21:02.635Z,16.30
2022-12-03T23:23:30.713Z,16.73
2022-12-03T23:26:04.509Z,16.67
2022-12-03T23:28:34.447Z,15.95
2022-12-03T23:31:02.613Z,14.82
2022-12-03T23:33:36.637Z,15.52
2022-12-03T23:36:07.622Z,15.27
2022-12-03T23:38:35.736Z,15.60
2022-12-03T23:41:08.702Z,15.55
2022-12-03T23:43:37.447Z,14.60
2022-12-03T23:46:15.081Z,13.88
2022-12-03T23:48:43.370Z,14.33
2022-12-03T23:51:17.241Z,15.13
2022-12-03T23:53:45.931Z,15.25
2022-12-03T23:56:19.788Z,15.43
2022-12-03T23:58:48.309Z,15.65
